WEATHER DATA

TODAY
Time Temp. Dewp. Hum. Wind dir Wind speed Wind gust Bar. 1h Prec. 24h Prec.
00:05 20.1 13.3 65 90 0.3 0.8 1017.4 0.0000 0.0000
00:15 20 13.2 65 90 0.3 0.8 1017.4 0.0000 0.0000
00:26 19.9 13.1 65 90 0.3 0.8 1017.4 0.0000 0.0000
00:36 19.9 13.4 66 90 0.3 0.8 1017.3 0.0000 0.0000
00:45 19.9 13.4 66 90 0.3 0.8 1017.3 0.0000 0.0000
00:56 19.9 13.4 66 90 0.3 0.8 1017.2 0.0000 0.0000
01:06 20 13.5 66 90 0.3 0.8 1017.1 0.0000 0.0000
01:15 20.1 13.8 67 90 0.3 0.8 1017.1 0.0000 0.0000
01:25 20.2 13.9 67 90 0.3 0.8 1017 0.0000 0.0000
01:36 20.3 14 67 90 0.3 0.8 1016.9 0.0000 0.0000
01:46 20.4 14.1 67 90 0.3 0.8 1016.9 0.0000 0.0000
01:55 20.4 14.1 67 90 0.3 0.8 1016.8 0.0000 0.0000
02:06 20.4 14.1 67 90 0.3 0.8 1016.7 0.0000 0.0000
02:16 20.4 14.1 67 90 0.3 0.8 1016.7 0.0000 0.0000
02:25 20.4 14.1 67 90 0.3 0.8 1016.6 0.0000 0.0000
02:36 20.3 14 67 90 0.3 0.8 1016.7 0.0000 0.0000
02:46 20.2 13.9 67 90 0.3 0.8 1016.6 0.0000 0.0000
02:56 20.1 14 68 90 0.3 0.8 1016.6 0.0000 0.0000
03:05 19.9 13.8 68 90 0.3 0.8 1016.7 0.0000 0.0000
03:16 19.8 13.7 68 90 0.3 0.8 1016.7 0.0000 0.0000
03:26 19.6 13.5 68 90 0.3 0.8 1016.7 0.0000 0.0000
03:36 19.5 13.4 68 90 0.3 0.8 1016.6 0.0000 0.0000
03:46 19.3 13.3 68 90 0.3 0.8 1016.5 0.0000 0.0000
03:56 19.1 13.3 69 90 0.3 0.8 1016.5 0.0000 0.0000
04:06 19 13.2 69 90 0.3 0.8 1016.6 0.0000 0.0000
04:16 19 13.4 70 90 0.3 0.8 1016.5 0.0000 0.0000
04:26 18.9 13.3 70 90 0.3 0.8 1016.4 0.0000 0.0000
04:36 18.7 13.1 70 90 0.3 0.8 1016.4 0.0000 0.0000
04:46 18.6 13.2 71 90 0.3 0.8 1016.4 0.0000 0.0000
04:56 18.5 13.1 71 90 0.3 0.8 1016.4 0.0000 0.0000
05:06 18.5 13.4 72 90 0.3 0.8 1016.4 0.0000 0.0000
05:16 18.4 13.3 72 90 0.3 0.8 1016.4 0.0000 0.0000
05:26 18.4 13.3 72 90 0.3 0.8 1016.4 0.0000 0.0000
05:36 18.3 13.2 72 90 0.3 0.8 1016.5 0.0000 0.0000
05:46 18.3 13.4 73 90 0.3 0.8 1016.4 0.0000 0.0000
06:07 18.3 13.4 73 90 0.3 0.8 1016.4 0.0000 0.0000
06:26 18.4 13.7 74 90 0.3 0.8 1016.4 0.0000 0.0000
06:37 18.4 13.7 74 90 0.3 0.8 1016.5 0.0000 0.0000
06:47 18.5 13.8 74 90 0.3 0.8 1016.6 0.0000 0.0000
06:56 18.6 14.1 75 90 0.3 0.8 1016.6 0.0000 0.0000
07:06 18.8 14.3 75 90 0.3 0.8 1016.6 0.0000 0.0000
07:17 19 14.5 75 90 0.3 0.8 1016.6 0.0000 0.0000
07:27 19.2 14.9 76 90 0.3 0.8 1016.5 0.0000 0.0000
07:36 19.6 15.3 76 90 0.3 0.8 1016.6 0.0000 0.0000
07:47 20.1 15.7 76 90 0.3 0.8 1016.8 0.0000 0.0000
07:57 20.7 16.3 76 90 0.3 0.8 1016.9 0.0000 0.0000
08:07 21.4 16.8 75 90 0.3 0.8 1017 0.0000 0.0000
08:16 22 17.2 74 90 0.3 0.8 1017 0.0000 0.0000
08:27 22.7 17.6 73 90 0.3 0.8 1017.1 0.0000 0.0000
08:37 23.5 18.2 72 90 0.3 0.8 1017.1 0.0000 0.0000
08:46 24.3 18.7 71 90 0.3 0.8 1017.2 0.0000 0.0000
08:57 25.1 18.8 68 90 0.3 0.8 1017.1 0.0000 0.0000
09:07 25.8 19 66 90 0.3 0.8 1017.2 0.0000 0.0000
09:17 26.5 19.1 64 90 0.3 0.8 1017.2 0.0000 0.0000
09:27 27.1 19.2 62 90 0.3 0.8 1017.2 0.0000 0.0000
09:37 27.7 19.5 61 90 0.3 0.8 1017.3 0.0000 0.0000
09:47 28.2 19.4 59 90 0.3 0.8 1017.4 0.0000 0.0000
09:57 28.7 19.6 58 90 0.3 0.8 1017.5 0.0000 0.0000
10:07 29.2 19.5 56 90 0.3 0.8 1017.6 0.0000 0.0000
10:17 29.5 19.2 54 90 0.3 0.8 1017.5 0.0000 0.0000
10:27 29.7 19.1 53 90 0.3 0.8 1017.5 0.0000 0.0000
10:37 29.9 19 52 90 0.3 0.8 1017.5 0.0000 0.0000
10:57 30.4 19.1 51 90 0.3 0.8 1017.4 0.0000 0.0000
11:07 30.5 19.2 51 90 0.3 0.8 1017.4 0.0000 0.0000
11:17 30.6 19 50 90 0.3 0.8 1017.3 0.0000 0.0000
11:27 30.8 18.9 49 90 0.3 0.8 1017.2 0.0000 0.0000
11:37 30.9 18.9 49 90 0.3 0.8 1017.1 0.0000 0.0000
11:48 31.1 18.8 48 90 0.3 0.8 1017 0.0000 0.0000
11:57 31.2 18.6 47 90 0.3 0.8 1017 0.0000 0.0000
12:07 31.4 19.1 48 90 0.3 0.8 1017 0.0000 0.0000
12:17 31.5 18.8 47 90 0.3 0.8 1017 0.0000 0.0000
12:27 31.7 18.7 46 90 0.3 0.8 1017 0.0000 0.0000
12:37 31.7 18.7 46 90 0.3 0.8 1016.8 0.0000 0.0000
12:47 31.9 18.8 46 90 0.3 0.8 1016.8 0.0000 0.0000
13:07 32.1 18.7 45 90 0.3 0.8 1016.7 0.0000 0.0000
13:17 32.3 18.9 45 90 0.3 0.8 1016.6 0.0000 0.0000
13:27 32.4 18.2 43 90 0.3 0.8 1016.5 0.0000 0.0000
13:38 32.6 18.4 43 90 0.3 0.8 1016.4 0.0000 0.0000
13:47 32.6 18 42 90 0.3 0.8 1016.3 0.0000 0.0000
14:08 32.6 17.3 40 90 0.3 0.8 1016 0.0000 0.0000
14:27 33.1 17.7 40 90 0.3 0.8 1015.8 0.0000 0.0000
14:38 33.2 17.8 40 90 0.3 0.8 1015.9 0.0000 0.0000
14:48 33.4 17.6 39 90 0.3 0.8 1015.8 0.0000 0.0000
14:57 33.6 17.7 39 90 0.3 0.8 1015.8 0.0000 0.0000
15:07 33.9 18 39 90 0.3 0.8 1015.8 0.0000 0.0000
15:18 34.1 18.2 39 90 0.3 0.8 1015.6 0.0000 0.0000
15:28 34.2 17.9 38 90 0.3 0.8 1015.5 0.0000 0.0000
15:37 34.1 17.8 38 90 0.3 0.8 1015.5 0.0000 0.0000
15:48 34.3 17.9 38 90 0.3 0.8 1015.4 0.0000 0.0000
15:58 34.4 18 38 90 0.3 0.8 1015.2 0.0000 0.0000
16:08 34.3 17.9 38 90 0.3 0.8 1015.2 0.0000 0.0000
16:18 34.2 18.3 39 90 0.3 0.8 1015.2 0.0000 0.0000
16:28 34.3 17.9 38 90 0.3 0.8 1015.2 0.0000 0.0000
16:38 34.2 17.9 38 90 0.3 0.8 1015 0.0000 0.0000
16:47 34.2 17.9 38 90 0.3 0.8 1015 0.0000 0.0000
16:58 33.9 17.6 38 90 0.3 0.8 1015.1 0.0000 0.0000
17:08 33.5 17.2 38 90 0.3 0.8 1015 0.0000 0.0000
17:18 33.3 17.9 40 90 0.3 0.8 1014.9 0.0000 0.0000
17:28 32.9 18.3 42 90 0.3 0.8 1014.8 0.0000 0.0000
17:38 32.5 17.9 42 90 0.3 0.8 1014.8 0.0000 0.0000
17:48 32.1 18.7 45 90 0.3 0.8 1014.7 0.0000 0.0000
17:58 31.7 18.7 46 90 0.3 0.8 1014.7 0.0000 0.0000
18:08 31.3 18.3 46 90 0.3 0.8 1014.6 0.0000 0.0000
18:18 31.2 18.9 48 90 0.3 0.8 1014.5 0.0000 0.0000
18:28 31 18.7 48 90 0.3 0.8 1014.5 0.0000 0.0000
18:39 30.8 18.2 47 90 0.3 0.8 1014.5 0.0000 0.0000
18:48 30.8 18.2 47 90 0.3 0.8 1014.6 0.0000 0.0000
18:58 30.6 17.7 46 90 0.3 0.8 1014.6 0.0000 0.0000
19:08 30.4 17.5 46 90 0.3 0.8 1014.7 0.0000 0.0000
19:18 30 17.1 46 90 0.3 0.8 1014.7 0.0000 0.0000
19:28 29.6 17.1 47 90 0.3 0.8 1014.8 0.0000 0.0000
19:38 29.1 16.6 47 90 0.3 0.8 1014.8 0.0000 0.0000
19:49 28.8 16.4 47 90 0.3 0.8 1014.9 0.0000 0.0000
19:58 28.6 15.9 46 90 0.3 0.8 1014.9 0.0000 0.0000

DAY STATISTIC

2018-08-20
TEMPERATURE
AVERAGE
26.2
HIGH
34.4
15:58
LOW
18.3
05:36
PRESSURE
AVERAGE
1016.3
HIGH
1017.6
10:07
LOW
1014.5
18:18
DEWPOINT
AVERAGE
16.5
HIGH
19.6
09:57
LOW
13.1
00:26
HUMIDITY
AVERAGE
57
HIGH
76
07:27
LOW
38
15:28
WIND SPEED
AVERAGE
0.3
HIGH
0.3
00:05
WIND GUST
AVERAGE
0.8
HIGH
0.8
00:05
WIND DIRECTION
PREVAILING
E
100%
N
0.0
NE
0.0
E
100.0
SE
0.0
S
0.0
SW
0.0
W
0.0
NW
0.0
PRECIPITATION
RAIN HOUR
0.0
RAIN DAY
0.0
TEMPERATURE (°C)
LOW
18.3
HIGH
34.4
AVERAGE
26.2
PRESSURE (hpa)
LOW
1014.5
HIGH
1017.6
AVERAGE
1016.3
DEVICE